sensor_id;sensor_type;location;lat;lon;timestamp;P1;durP1;ratioP1;P2;durP2;ratioP2
8225;SDS011;4154;48.810;9.012;2023-09-19T00:01:00;1.55;;;1.17;;
8225;SDS011;4154;48.810;9.012;2023-09-19T00:10:05;1.38;;;1.13;;
8225;SDS011;4154;48.810;9.012;2023-09-19T00:12:42;1.88;;;1.30;;
8225;SDS011;4154;48.810;9.012;2023-09-19T00:15:45;1.25;;;1.15;;
8225;SDS011;4154;48.810;9.012;2023-09-19T00:18:25;1.85;;;1.17;;
8225;SDS011;4154;48.810;9.012;2023-09-19T00:20:59;2.08;;;1.30;;
8225;SDS011;4154;48.810;9.012;2023-09-19T00:23:26;2.20;;;1.10;;
8225;SDS011;4154;48.810;9.012;2023-09-19T00:25:58;1.30;;;1.20;;
8225;SDS011;4154;48.810;9.012;2023-09-19T00:28:25;1.80;;;1.02;;
8225;SDS011;4154;48.810;9.012;2023-09-19T00:30:56;2.50;;;1.10;;
8225;SDS011;4154;48.810;9.012;2023-09-19T00:33:41;1.20;;;1.10;;
8225;SDS011;4154;48.810;9.012;2023-09-19T00:36:16;1.25;;;1.00;;
8225;SDS011;4154;48.810;9.012;2023-09-19T00:38:52;1.20;;;1.00;;
8225;SDS011;4154;48.810;9.012;2023-09-19T00:41:35;1.38;;;1.15;;
8225;SDS011;4154;48.810;9.012;2023-09-19T00:44:09;1.30;;;1.20;;
8225;SDS011;4154;48.810;9.012;2023-09-19T00:47:00;2.35;;;1.08;;
8225;SDS011;4154;48.810;9.012;2023-09-19T00:49:34;1.60;;;1.10;;
8225;SDS011;4154;48.810;9.012;2023-09-19T00:53:04;1.30;;;1.20;;
8225;SDS011;4154;48.810;9.012;2023-09-19T00:55:39;1.20;;;1.08;;
8225;SDS011;4154;48.810;9.012;2023-09-19T00:58:20;1.05;;;0.95;;
8225;SDS011;4154;48.810;9.012;2023-09-19T01:01:23;1.10;;;0.90;;
8225;SDS011;4154;48.810;9.012;2023-09-19T01:04:03;1.10;;;1.00;;
8225;SDS011;4154;48.810;9.012;2023-09-19T01:06:36;1.88;;;1.00;;
8225;SDS011;4154;48.810;9.012;2023-09-19T01:09:04;1.42;;;1.30;;
8225;SDS011;4154;48.810;9.012;2023-09-19T01:11:35;1.20;;;1.00;;
8225;SDS011;4154;48.810;9.012;2023-09-19T01:32:06;0.95;;;0.95;;
8225;SDS011;4154;48.810;9.012;2023-09-19T01:38:41;0.90;;;0.90;;
8225;SDS011;4154;48.810;9.012;2023-09-19T01:42:12;1.73;;;1.13;;
8225;SDS011;4154;48.810;9.012;2023-09-19T01:45:12;1.00;;;0.85;;
8225;SDS011;4154;48.810;9.012;2023-09-19T01:55:24;1.27;;;0.90;;
8225;SDS011;4154;48.810;9.012;2023-09-19T01:58:48;1.60;;;1.10;;
8225;SDS011;4154;48.810;9.012;2023-09-19T02:05:12;1.00;;;1.00;;
8225;SDS011;4154;48.810;9.012;2023-09-19T02:07:52;1.08;;;1.02;;
8225;SDS011;4154;48.810;9.012;2023-09-19T02:10:21;2.60;;;1.02;;
8225;SDS011;4154;48.810;9.012;2023-09-19T02:12:53;0.95;;;0.95;;
8225;SDS011;4154;48.810;9.012;2023-09-19T02:15:39;1.35;;;1.00;;
8225;SDS011;4154;48.810;9.012;2023-09-19T02:18:12;1.50;;;1.10;;
8225;SDS011;4154;48.810;9.012;2023-09-19T02:20:48;1.73;;;1.02;;
8225;SDS011;4154;48.810;9.012;2023-09-19T02:23:24;1.02;;;0.95;;
8225;SDS011;4154;48.810;9.012;2023-09-19T02:29:29;1.50;;;1.00;;
8225;SDS011;4154;48.810;9.012;2023-09-19T02:31:59;1.52;;;1.02;;
8225;SDS011;4154;48.810;9.012;2023-09-19T02:34:28;2.15;;;1.13;;
8225;SDS011;4154;48.810;9.012;2023-09-19T02:40:35;1.98;;;1.00;;
8225;SDS011;4154;48.810;9.012;2023-09-19T02:43:30;1.23;;;1.00;;
8225;SDS011;4154;48.810;9.012;2023-09-19T02:46:02;1.42;;;1.00;;
8225;SDS011;4154;48.810;9.012;2023-09-19T02:48:38;1.20;;;0.95;;
8225;SDS011;4154;48.810;9.012;2023-09-19T02:54:33;1.25;;;1.08;;
8225;SDS011;4154;48.810;9.012;2023-09-19T03:07:14;1.10;;;1.00;;
8225;SDS011;4154;48.810;9.012;2023-09-19T03:10:17;1.10;;;1.00;;
8225;SDS011;4154;48.810;9.012;2023-09-19T03:12:58;3.25;;;1.02;;
8225;SDS011;4154;48.810;9.012;2023-09-19T03:15:44;1.10;;;0.95;;
8225;SDS011;4154;48.810;9.012;2023-09-19T03:22:34;1.00;;;0.95;;
8225;SDS011;4154;48.810;9.012;2023-09-19T03:25:10;1.00;;;1.00;;
8225;SDS011;4154;48.810;9.012;2023-09-19T03:27:42;1.83;;;1.00;;
8225;SDS011;4154;48.810;9.012;2023-09-19T03:30:57;2.17;;;1.10;;
8225;SDS011;4154;48.810;9.012;2023-09-19T03:34:07;0.80;;;0.80;;
8225;SDS011;4154;48.810;9.012;2023-09-19T03:36:34;1.10;;;1.00;;
8225;SDS011;4154;48.810;9.012;2023-09-19T03:39:39;1.50;;;1.00;;
8225;SDS011;4154;48.810;9.012;2023-09-19T03:42:56;1.67;;;1.08;;
8225;SDS011;4154;48.810;9.012;2023-09-19T03:46:04;1.77;;;1.05;;
8225;SDS011;4154;48.810;9.012;2023-09-19T03:52:22;2.28;;;1.00;;
8225;SDS011;4154;48.810;9.012;2023-09-19T03:55:33;1.13;;;1.02;;
8225;SDS011;4154;48.810;9.012;2023-09-19T03:58:35;2.60;;;1.10;;
8225;SDS011;4154;48.810;9.012;2023-09-19T04:01:04;2.60;;;1.20;;
8225;SDS011;4154;48.810;9.012;2023-09-19T04:03:33;1.33;;;1.20;;
8225;SDS011;4154;48.810;9.012;2023-09-19T04:14:02;1.15;;;1.05;;
8225;SDS011;4154;48.810;9.012;2023-09-19T04:17:21;1.73;;;1.20;;
8225;SDS011;4154;48.810;9.012;2023-09-19T04:28:14;1.17;;;1.08;;
8225;SDS011;4154;48.810;9.012;2023-09-19T04:30:56;1.88;;;1.20;;
8225;SDS011;4154;48.810;9.012;2023-09-19T04:41:24;1.35;;;1.20;;
8225;SDS011;4154;48.810;9.012;2023-09-19T04:43:56;1.83;;;1.38;;
8225;SDS011;4154;48.810;9.012;2023-09-19T04:49:58;1.50;;;1.30;;
8225;SDS011;4154;48.810;9.012;2023-09-19T04:52:24;1.35;;;1.20;;
8225;SDS011;4154;48.810;9.012;2023-09-19T04:54:50;1.95;;;1.60;;
8225;SDS011;4154;48.810;9.012;2023-09-19T04:57:17;2.05;;;1.42;;
8225;SDS011;4154;48.810;9.012;2023-09-19T04:59:43;1.80;;;1.58;;
8225;SDS011;4154;48.810;9.012;2023-09-19T05:02:09;1.42;;;1.33;;
8225;SDS011;4154;48.810;9.012;2023-09-19T05:04:37;2.33;;;1.50;;
8225;SDS011;4154;48.810;9.012;2023-09-19T05:07:03;2.38;;;1.55;;
8225;SDS011;4154;48.810;9.012;2023-09-19T05:09:29;4.18;;;1.30;;
8225;SDS011;4154;48.810;9.012;2023-09-19T05:11:59;1.75;;;1.45;;
8225;SDS011;4154;48.810;9.012;2023-09-19T05:14:25;1.63;;;1.30;;
8225;SDS011;4154;48.810;9.012;2023-09-19T05:16:51;2.38;;;1.60;;
8225;SDS011;4154;48.810;9.012;2023-09-19T05:19:17;1.40;;;1.30;;
8225;SDS011;4154;48.810;9.012;2023-09-19T05:21:43;1.55;;;1.40;;
8225;SDS011;4154;48.810;9.012;2023-09-19T05:24:09;3.67;;;1.40;;
8225;SDS011;4154;48.810;9.012;2023-09-19T05:26:37;1.60;;;1.40;;
8225;SDS011;4154;48.810;9.012;2023-09-19T05:29:04;1.30;;;1.20;;
8225;SDS011;4154;48.810;9.012;2023-09-19T05:31:32;2.00;;;1.63;;
8225;SDS011;4154;48.810;9.012;2023-09-19T05:34:01;1.50;;;1.40;;
8225;SDS011;4154;48.810;9.012;2023-09-19T05:36:28;2.25;;;1.60;;
8225;SDS011;4154;48.810;9.012;2023-09-19T05:38:54;1.65;;;1.42;;
8225;SDS011;4154;48.810;9.012;2023-09-19T05:41:20;1.80;;;1.65;;
8225;SDS011;4154;48.810;9.012;2023-09-19T05:43:48;1.60;;;1.50;;
8225;SDS011;4154;48.810;9.012;2023-09-19T05:46:15;1.60;;;1.40;;
8225;SDS011;4154;48.810;9.012;2023-09-19T05:48:41;1.95;;;1.52;;
8225;SDS011;4154;48.810;9.012;2023-09-19T05:51:08;2.25;;;1.50;;
8225;SDS011;4154;48.810;9.012;2023-09-19T05:53:37;1.65;;;1.50;;
8225;SDS011;4154;48.810;9.012;2023-09-19T05:56:08;2.28;;;1.75;;
8225;SDS011;4154;48.810;9.012;2023-09-19T05:58:35;2.80;;;1.50;;
8225;SDS011;4154;48.810;9.012;2023-09-19T06:01:01;1.77;;;1.38;;
8225;SDS011;4154;48.810;9.012;2023-09-19T06:03:28;4.15;;;1.92;;
8225;SDS011;4154;48.810;9.012;2023-09-19T06:05:56;2.83;;;1.77;;
8225;SDS011;4154;48.810;9.012;2023-09-19T06:08:22;1.77;;;1.50;;
8225;SDS011;4154;48.810;9.012;2023-09-19T06:10:48;2.05;;;1.80;;
8225;SDS011;4154;48.810;9.012;2023-09-19T06:13:17;2.15;;;1.85;;
8225;SDS011;4154;48.810;9.012;2023-09-19T06:15:44;2.67;;;2.00;;
8225;SDS011;4154;48.810;9.012;2023-09-19T06:18:12;2.28;;;1.75;;
8225;SDS011;4154;48.810;9.012;2023-09-19T06:20:44;2.00;;;1.90;;
8225;SDS011;4154;48.810;9.012;2023-09-19T06:23:15;1.73;;;1.63;;
8225;SDS011;4154;48.810;9.012;2023-09-19T06:25:42;3.50;;;1.77;;
8225;SDS011;4154;48.810;9.012;2023-09-19T06:28:08;4.22;;;2.33;;
8225;SDS011;4154;48.810;9.012;2023-09-19T06:30:55;3.22;;;2.00;;
8225;SDS011;4154;48.810;9.012;2023-09-19T06:33:31;2.47;;;1.70;;
8225;SDS011;4154;48.810;9.012;2023-09-19T06:43:21;2.03;;;1.80;;
8225;SDS011;4154;48.810;9.012;2023-09-19T06:46:01;3.22;;;1.73;;
8225;SDS011;4154;48.810;9.012;2023-09-19T06:49:22;2.08;;;1.60;;
8225;SDS011;4154;48.810;9.012;2023-09-19T06:52:45;2.92;;;1.92;;
8225;SDS011;4154;48.810;9.012;2023-09-19T06:55:58;3.65;;;1.70;;
8225;SDS011;4154;48.810;9.012;2023-09-19T06:59:00;2.80;;;2.00;;
8225;SDS011;4154;48.810;9.012;2023-09-19T07:02:10;2.78;;;1.80;;
8225;SDS011;4154;48.810;9.012;2023-09-19T07:04:38;2.33;;;1.90;;
8225;SDS011;4154;48.810;9.012;2023-09-19T07:18:03;2.33;;;1.83;;
8225;SDS011;4154;48.810;9.012;2023-09-19T07:21:30;2.30;;;1.50;;
8225;SDS011;4154;48.810;9.012;2023-09-19T07:34:41;2.65;;;1.80;;
8225;SDS011;4154;48.810;9.012;2023-09-19T07:49:22;3.78;;;1.83;;
8225;SDS011;4154;48.810;9.012;2023-09-19T07:51:48;3.25;;;1.60;;
8225;SDS011;4154;48.810;9.012;2023-09-19T07:54:14;2.97;;;1.85;;
8225;SDS011;4154;48.810;9.012;2023-09-19T07:56:40;3.35;;;1.95;;
8225;SDS011;4154;48.810;9.012;2023-09-19T07:59:05;2.45;;;1.70;;
8225;SDS011;4154;48.810;9.012;2023-09-19T08:01:31;2.08;;;1.80;;
8225;SDS011;4154;48.810;9.012;2023-09-19T08:03:58;2.22;;;1.90;;
8225;SDS011;4154;48.810;9.012;2023-09-19T08:06:35;1.70;;;1.60;;
8225;SDS011;4154;48.810;9.012;2023-09-19T08:09:04;2.78;;;1.80;;
8225;SDS011;4154;48.810;9.012;2023-09-19T08:11:36;2.13;;;1.48;;
8225;SDS011;4154;48.810;9.012;2023-09-19T08:17:35;1.50;;;1.40;;
8225;SDS011;4154;48.810;9.012;2023-09-19T08:20:01;2.58;;;1.60;;
8225;SDS011;4154;48.810;9.012;2023-09-19T08:22:44;2.90;;;1.70;;
8225;SDS011;4154;48.810;9.012;2023-09-19T08:25:35;2.33;;;1.63;;
8225;SDS011;4154;48.810;9.012;2023-09-19T08:31:36;1.85;;;1.40;;
8225;SDS011;4154;48.810;9.012;2023-09-19T08:38:12;2.15;;;1.33;;
8225;SDS011;4154;48.810;9.012;2023-09-19T08:41:06;1.55;;;1.45;;
8225;SDS011;4154;48.810;9.012;2023-09-19T08:43:38;1.27;;;1.17;;
8225;SDS011;4154;48.810;9.012;2023-09-19T08:46:11;1.40;;;1.30;;
8225;SDS011;4154;48.810;9.012;2023-09-19T08:55:18;2.60;;;1.55;;
8225;SDS011;4154;48.810;9.012;2023-09-19T08:58:16;1.58;;;1.48;;
8225;SDS011;4154;48.810;9.012;2023-09-19T09:01:51;2.00;;;1.38;;
8225;SDS011;4154;48.810;9.012;2023-09-19T09:08:44;1.63;;;1.38;;
8225;SDS011;4154;48.810;9.012;2023-09-19T09:11:15;1.75;;;1.40;;
8225;SDS011;4154;48.810;9.012;2023-09-19T09:17:31;1.73;;;1.25;;
8225;SDS011;4154;48.810;9.012;2023-09-19T09:20:52;2.10;;;1.50;;
8225;SDS011;4154;48.810;9.012;2023-09-19T09:24:02;1.55;;;1.20;;
8225;SDS011;4154;48.810;9.012;2023-09-19T09:35:33;2.53;;;1.40;;
8225;SDS011;4154;48.810;9.012;2023-09-19T09:38:48;2.47;;;1.40;;
8225;SDS011;4154;48.810;9.012;2023-09-19T09:56:04;1.95;;;1.50;;
8225;SDS011;4154;48.810;9.012;2023-09-19T10:17:35;1.80;;;1.40;;
8225;SDS011;4154;48.810;9.012;2023-09-19T10:20:59;2.88;;;1.52;;
8225;SDS011;4154;48.810;9.012;2023-09-19T10:27:20;1.88;;;1.50;;
8225;SDS011;4154;48.810;9.012;2023-09-19T10:30:24;2.15;;;1.50;;
8225;SDS011;4154;48.810;9.012;2023-09-19T10:32:59;3.00;;;1.63;;
8225;SDS011;4154;48.810;9.012;2023-09-19T10:36:07;1.40;;;1.30;;
8225;SDS011;4154;48.810;9.012;2023-09-19T10:46:49;1.75;;;1.30;;
8225;SDS011;4154;48.810;9.012;2023-09-19T10:53:17;1.85;;;1.30;;
8225;SDS011;4154;48.810;9.012;2023-09-19T11:07:56;2.33;;;1.20;;
8225;SDS011;4154;48.810;9.012;2023-09-19T11:17:58;1.60;;;1.20;;
8225;SDS011;4154;48.810;9.012;2023-09-19T11:27:11;2.60;;;1.17;;
8225;SDS011;4154;48.810;9.012;2023-09-19T12:02:00;1.23;;;1.13;;
8225;SDS011;4154;48.810;9.012;2023-09-19T12:42:25;1.80;;;1.38;;
8225;SDS011;4154;48.810;9.012;2023-09-19T12:53:08;1.30;;;1.20;;
8225;SDS011;4154;48.810;9.012;2023-09-19T12:56:18;1.83;;;1.30;;
8225;SDS011;4154;48.810;9.012;2023-09-19T12:58:54;2.08;;;1.13;;
8225;SDS011;4154;48.810;9.012;2023-09-19T13:02:02;1.55;;;1.35;;
8225;SDS011;4154;48.810;9.012;2023-09-19T13:04:51;2.75;;;1.30;;
8225;SDS011;4154;48.810;9.012;2023-09-19T13:07:56;1.33;;;1.20;;
8225;SDS011;4154;48.810;9.012;2023-09-19T13:17:16;3.00;;;1.23;;
8225;SDS011;4154;48.810;9.012;2023-09-19T13:20:02;1.48;;;1.20;;
8225;SDS011;4154;48.810;9.012;2023-09-19T13:27:22;2.38;;;1.38;;
8225;SDS011;4154;48.810;9.012;2023-09-19T13:37:11;1.80;;;1.23;;
8225;SDS011;4154;48.810;9.012;2023-09-19T13:39:40;1.42;;;1.30;;
8225;SDS011;4154;48.810;9.012;2023-09-19T13:42:15;1.58;;;1.33;;
8225;SDS011;4154;48.810;9.012;2023-09-19T13:45:01;2.35;;;1.30;;
8225;SDS011;4154;48.810;9.012;2023-09-19T13:47:52;3.88;;;1.13;;
8225;SDS011;4154;48.810;9.012;2023-09-19T13:50:18;1.80;;;1.40;;
8225;SDS011;4154;48.810;9.012;2023-09-19T13:52:49;1.85;;;1.33;;
8225;SDS011;4154;48.810;9.012;2023-09-19T13:55:16;1.83;;;1.40;;
8225;SDS011;4154;48.810;9.012;2023-09-19T13:57:45;1.60;;;1.25;;
8225;SDS011;4154;48.810;9.012;2023-09-19T14:00:15;1.50;;;1.40;;
8225;SDS011;4154;48.810;9.012;2023-09-19T14:02:41;6.88;;;1.63;;
8225;SDS011;4154;48.810;9.012;2023-09-19T14:05:09;3.00;;;1.50;;
8225;SDS011;4154;48.810;9.012;2023-09-19T14:07:39;3.92;;;1.40;;
8225;SDS011;4154;48.810;9.012;2023-09-19T14:10:06;1.40;;;1.30;;
8225;SDS011;4154;48.810;9.012;2023-09-19T14:12:33;1.30;;;1.20;;
8225;SDS011;4154;48.810;9.012;2023-09-19T14:14:59;1.60;;;1.20;;
8225;SDS011;4154;48.810;9.012;2023-09-19T14:24:49;3.28;;;1.38;;
8225;SDS011;4154;48.810;9.012;2023-09-19T14:27:15;1.40;;;1.30;;
8225;SDS011;4154;48.810;9.012;2023-09-19T14:29:42;1.90;;;1.40;;
8225;SDS011;4154;48.810;9.012;2023-09-19T14:32:08;2.65;;;1.27;;
8225;SDS011;4154;48.810;9.012;2023-09-19T14:34:35;2.75;;;1.30;;
8225;SDS011;4154;48.810;9.012;2023-09-19T14:37:06;1.60;;;1.40;;
8225;SDS011;4154;48.810;9.012;2023-09-19T14:39:33;2.03;;;1.58;;
8225;SDS011;4154;48.810;9.012;2023-09-19T14:41:59;2.97;;;1.50;;
8225;SDS011;4154;48.810;9.012;2023-09-19T14:44:25;1.30;;;1.20;;
8225;SDS011;4154;48.810;9.012;2023-09-19T14:46:53;1.60;;;1.33;;
8225;SDS011;4154;48.810;9.012;2023-09-19T14:49:19;1.65;;;1.30;;
8225;SDS011;4154;48.810;9.012;2023-09-19T14:51:46;3.10;;;1.27;;
8225;SDS011;4154;48.810;9.012;2023-09-19T14:54:13;3.97;;;1.50;;
8225;SDS011;4154;48.810;9.012;2023-09-19T14:56:44;2.22;;;1.25;;
8225;SDS011;4154;48.810;9.012;2023-09-19T14:59:18;1.05;;;1.00;;
8225;SDS011;4154;48.810;9.012;2023-09-19T15:01:45;1.35;;;1.17;;
8225;SDS011;4154;48.810;9.012;2023-09-19T15:04:11;1.40;;;0.93;;
8225;SDS011;4154;48.810;9.012;2023-09-19T15:06:37;1.40;;;1.27;;
8225;SDS011;4154;48.810;9.012;2023-09-19T15:09:03;1.52;;;1.30;;
8225;SDS011;4154;48.810;9.012;2023-09-19T15:11:30;1.30;;;1.20;;
8225;SDS011;4154;48.810;9.012;2023-09-19T15:13:59;2.47;;;1.20;;
8225;SDS011;4154;48.810;9.012;2023-09-19T15:16:37;1.40;;;1.20;;
8225;SDS011;4154;48.810;9.012;2023-09-19T15:19:08;1.10;;;1.10;;
8225;SDS011;4154;48.810;9.012;2023-09-19T15:21:36;1.25;;;1.15;;
8225;SDS011;4154;48.810;9.012;2023-09-19T15:24:03;1.70;;;1.10;;
8225;SDS011;4154;48.810;9.012;2023-09-19T15:26:30;1.95;;;1.20;;
8225;SDS011;4154;48.810;9.012;2023-09-19T15:28:56;1.55;;;1.20;;
8225;SDS011;4154;48.810;9.012;2023-09-19T15:31:22;1.35;;;1.05;;
8225;SDS011;4154;48.810;9.012;2023-09-19T15:33:49;2.08;;;1.10;;
8225;SDS011;4154;48.810;9.012;2023-09-19T15:36:27;1.48;;;1.10;;
8225;SDS011;4154;48.810;9.012;2023-09-19T15:39:00;1.10;;;1.00;;
8225;SDS011;4154;48.810;9.012;2023-09-19T15:41:36;1.33;;;0.98;;
8225;SDS011;4154;48.810;9.012;2023-09-19T15:44:13;1.80;;;1.10;;
8225;SDS011;4154;48.810;9.012;2023-09-19T15:46:43;1.13;;;1.02;;
8225;SDS011;4154;48.810;9.012;2023-09-19T15:49:10;1.67;;;1.17;;
8225;SDS011;4154;48.810;9.012;2023-09-19T15:51:44;1.30;;;1.20;;
8225;SDS011;4154;48.810;9.012;2023-09-19T15:54:14;1.67;;;1.35;;
8225;SDS011;4154;48.810;9.012;2023-09-19T15:56:47;1.58;;;1.20;;
8225;SDS011;4154;48.810;9.012;2023-09-19T16:02:22;1.95;;;1.40;;
8225;SDS011;4154;48.810;9.012;2023-09-19T16:04:53;1.35;;;1.25;;
8225;SDS011;4154;48.810;9.012;2023-09-19T16:07:45;2.65;;;1.40;;
8225;SDS011;4154;48.810;9.012;2023-09-19T16:10:17;2.38;;;1.00;;
8225;SDS011;4154;48.810;9.012;2023-09-19T16:13:22;2.05;;;1.27;;
8225;SDS011;4154;48.810;9.012;2023-09-19T16:15:58;1.70;;;1.17;;
8225;SDS011;4154;48.810;9.012;2023-09-19T16:18:48;1.27;;;1.17;;
8225;SDS011;4154;48.810;9.012;2023-09-19T16:21:26;2.38;;;1.33;;
8225;SDS011;4154;48.810;9.012;2023-09-19T16:24:05;2.97;;;1.45;;
8225;SDS011;4154;48.810;9.012;2023-09-19T16:26:38;1.45;;;1.35;;
8225;SDS011;4154;48.810;9.012;2023-09-19T16:29:04;1.42;;;1.30;;
8225;SDS011;4154;48.810;9.012;2023-09-19T16:31:37;1.08;;;1.08;;
8225;SDS011;4154;48.810;9.012;2023-09-19T16:34:05;1.25;;;1.15;;
8225;SDS011;4154;48.810;9.012;2023-09-19T16:36:36;1.52;;;1.10;;
8225;SDS011;4154;48.810;9.012;2023-09-19T16:39:06;1.40;;;1.20;;
8225;SDS011;4154;48.810;9.012;2023-09-19T16:41:44;1.30;;;1.20;;
8225;SDS011;4154;48.810;9.012;2023-09-19T16:44:50;1.88;;;1.10;;
8225;SDS011;4154;48.810;9.012;2023-09-19T16:47:56;1.30;;;1.20;;
8225;SDS011;4154;48.810;9.012;2023-09-19T16:50:31;1.33;;;1.23;;
8225;SDS011;4154;48.810;9.012;2023-09-19T16:53:02;1.23;;;1.10;;
8225;SDS011;4154;48.810;9.012;2023-09-19T16:55:33;1.88;;;1.10;;
8225;SDS011;4154;48.810;9.012;2023-09-19T16:57:59;1.80;;;1.35;;
8225;SDS011;4154;48.810;9.012;2023-09-19T17:00:25;2.15;;;1.13;;
8225;SDS011;4154;48.810;9.012;2023-09-19T17:03:09;1.42;;;1.20;;
8225;SDS011;4154;48.810;9.012;2023-09-19T17:05:38;1.75;;;1.08;;
8225;SDS011;4154;48.810;9.012;2023-09-19T17:08:08;2.35;;;1.20;;
8225;SDS011;4154;48.810;9.012;2023-09-19T17:10:35;1.27;;;1.17;;
8225;SDS011;4154;48.810;9.012;2023-09-19T17:13:02;1.50;;;1.15;;
8225;SDS011;4154;48.810;9.012;2023-09-19T17:15:30;2.80;;;1.30;;
8225;SDS011;4154;48.810;9.012;2023-09-19T17:17:57;2.78;;;1.30;;
8225;SDS011;4154;48.810;9.012;2023-09-19T17:20:26;2.05;;;1.20;;
8225;SDS011;4154;48.810;9.012;2023-09-19T17:23:01;1.30;;;1.20;;
8225;SDS011;4154;48.810;9.012;2023-09-19T17:25:28;2.33;;;1.15;;
8225;SDS011;4154;48.810;9.012;2023-09-19T17:27:58;1.30;;;1.20;;
8225;SDS011;4154;48.810;9.012;2023-09-19T17:30:24;1.60;;;1.42;;
8225;SDS011;4154;48.810;9.012;2023-09-19T17:32:52;2.25;;;1.67;;
8225;SDS011;4154;48.810;9.012;2023-09-19T17:35:18;1.55;;;1.45;;
8225;SDS011;4154;48.810;9.012;2023-09-19T17:37:45;2.95;;;1.55;;
8225;SDS011;4154;48.810;9.012;2023-09-19T17:40:11;2.70;;;1.60;;
8225;SDS011;4154;48.810;9.012;2023-09-19T17:42:38;2.00;;;1.40;;
8225;SDS011;4154;48.810;9.012;2023-09-19T17:45:06;1.58;;;1.23;;
8225;SDS011;4154;48.810;9.012;2023-09-19T17:47:42;1.40;;;1.30;;
8225;SDS011;4154;48.810;9.012;2023-09-19T17:50:09;1.70;;;1.35;;
8225;SDS011;4154;48.810;9.012;2023-09-19T17:52:41;2.22;;;1.35;;
8225;SDS011;4154;48.810;9.012;2023-09-19T17:55:13;1.10;;;1.00;;
8225;SDS011;4154;48.810;9.012;2023-09-19T17:57:44;1.27;;;1.15;;
8225;SDS011;4154;48.810;9.012;2023-09-19T18:00:12;1.48;;;1.10;;
8225;SDS011;4154;48.810;9.012;2023-09-19T18:02:39;2.60;;;1.40;;
8225;SDS011;4154;48.810;9.012;2023-09-19T18:05:27;1.45;;;1.35;;
8225;SDS011;4154;48.810;9.012;2023-09-19T18:08:06;2.10;;;1.48;;
8225;SDS011;4154;48.810;9.012;2023-09-19T18:10:38;1.40;;;1.30;;
8225;SDS011;4154;48.810;9.012;2023-09-19T18:13:05;1.30;;;1.20;;
8225;SDS011;4154;48.810;9.012;2023-09-19T18:15:33;1.95;;;1.30;;
8225;SDS011;4154;48.810;9.012;2023-09-19T18:18:10;1.65;;;1.33;;
8225;SDS011;4154;48.810;9.012;2023-09-19T18:20:37;1.40;;;1.30;;
8225;SDS011;4154;48.810;9.012;2023-09-19T18:23:05;2.22;;;1.30;;
8225;SDS011;4154;48.810;9.012;2023-09-19T18:25:32;1.95;;;1.48;;
8225;SDS011;4154;48.810;9.012;2023-09-19T18:27:58;1.65;;;1.30;;
8225;SDS011;4154;48.810;9.012;2023-09-19T18:30:25;2.72;;;1.30;;
8225;SDS011;4154;48.810;9.012;2023-09-19T18:32:51;2.53;;;1.40;;
8225;SDS011;4154;48.810;9.012;2023-09-19T18:35:18;1.83;;;1.60;;
8225;SDS011;4154;48.810;9.012;2023-09-19T18:37:44;1.63;;;1.45;;
8225;SDS011;4154;48.810;9.012;2023-09-19T18:40:13;1.83;;;1.65;;
8225;SDS011;4154;48.810;9.012;2023-09-19T18:42:42;1.67;;;1.58;;
8225;SDS011;4154;48.810;9.012;2023-09-19T18:45:20;1.55;;;1.45;;
8225;SDS011;4154;48.810;9.012;2023-09-19T18:48:06;1.80;;;1.70;;
8225;SDS011;4154;48.810;9.012;2023-09-19T18:50:35;2.65;;;1.60;;
8225;SDS011;4154;48.810;9.012;2023-09-19T18:53:11;2.75;;;1.60;;
8225;SDS011;4154;48.810;9.012;2023-09-19T18:55:58;2.25;;;1.67;;
8225;SDS011;4154;48.810;9.012;2023-09-19T18:58:45;3.65;;;1.70;;
8225;SDS011;4154;48.810;9.012;2023-09-19T19:01:17;2.03;;;1.80;;
8225;SDS011;4154;48.810;9.012;2023-09-19T19:03:52;1.73;;;1.63;;
8225;SDS011;4154;48.810;9.012;2023-09-19T19:06:42;2.08;;;1.77;;
8225;SDS011;4154;48.810;9.012;2023-09-19T19:12:10;2.58;;;1.90;;
8225;SDS011;4154;48.810;9.012;2023-09-19T19:14:45;2.17;;;1.95;;
8225;SDS011;4154;48.810;9.012;2023-09-19T19:17:19;1.90;;;1.70;;
8225;SDS011;4154;48.810;9.012;2023-09-19T19:19:46;2.05;;;1.60;;
8225;SDS011;4154;48.810;9.012;2023-09-19T19:22:19;1.70;;;1.60;;
8225;SDS011;4154;48.810;9.012;2023-09-19T19:24:46;4.47;;;2.08;;
8225;SDS011;4154;48.810;9.012;2023-09-19T19:27:15;2.10;;;1.60;;
8225;SDS011;4154;48.810;9.012;2023-09-19T19:29:47;3.38;;;2.15;;
8225;SDS011;4154;48.810;9.012;2023-09-19T19:32:14;2.75;;;1.80;;
8225;SDS011;4154;48.810;9.012;2023-09-19T19:34:46;3.65;;;1.90;;
8225;SDS011;4154;48.810;9.012;2023-09-19T19:37:33;2.00;;;1.80;;
8225;SDS011;4154;48.810;9.012;2023-09-19T19:40:11;2.10;;;1.73;;
8225;SDS011;4154;48.810;9.012;2023-09-19T19:46:39;2.25;;;2.05;;
8225;SDS011;4154;48.810;9.012;2023-09-19T19:49:28;2.42;;;2.00;;
8225;SDS011;4154;48.810;9.012;2023-09-19T19:52:13;2.35;;;1.98;;
8225;SDS011;4154;48.810;9.012;2023-09-19T19:54:56;2.17;;;1.75;;
8225;SDS011;4154;48.810;9.012;2023-09-19T19:58:05;2.03;;;1.80;;
8225;SDS011;4154;48.810;9.012;2023-09-19T20:00:53;2.67;;;1.80;;
8225;SDS011;4154;48.810;9.012;2023-09-19T20:03:36;2.55;;;1.98;;
8225;SDS011;4154;48.810;9.012;2023-09-19T20:06:05;2.70;;;2.05;;
8225;SDS011;4154;48.810;9.012;2023-09-19T20:08:42;2.05;;;1.85;;
8225;SDS011;4154;48.810;9.012;2023-09-19T20:11:16;4.03;;;2.40;;
8225;SDS011;4154;48.810;9.012;2023-09-19T20:13:52;2.83;;;2.17;;
8225;SDS011;4154;48.810;9.012;2023-09-19T20:16:20;2.65;;;2.30;;
8225;SDS011;4154;48.810;9.012;2023-09-19T20:18:59;5.18;;;2.20;;
8225;SDS011;4154;48.810;9.012;2023-09-19T20:22:05;2.22;;;2.03;;
8225;SDS011;4154;48.810;9.012;2023-09-19T20:25:52;2.88;;;2.10;;
8225;SDS011;4154;48.810;9.012;2023-09-19T20:28:59;2.80;;;2.00;;
8225;SDS011;4154;48.810;9.012;2023-09-19T20:32:07;3.25;;;2.03;;
8225;SDS011;4154;48.810;9.012;2023-09-19T20:39:11;6.95;;;2.40;;
8225;SDS011;4154;48.810;9.012;2023-09-19T20:45:22;2.65;;;1.90;;
8225;SDS011;4154;48.810;9.012;2023-09-19T20:47:49;2.05;;;1.85;;
8225;SDS011;4154;48.810;9.012;2023-09-19T20:50:46;3.53;;;2.25;;
8225;SDS011;4154;48.810;9.012;2023-09-19T20:54:15;2.45;;;2.00;;
8225;SDS011;4154;48.810;9.012;2023-09-19T20:56:57;4.07;;;2.40;;
8225;SDS011;4154;48.810;9.012;2023-09-19T20:59:26;3.10;;;2.15;;
8225;SDS011;4154;48.810;9.012;2023-09-19T21:02:03;3.97;;;2.20;;
8225;SDS011;4154;48.810;9.012;2023-09-19T21:04:32;4.00;;;2.33;;
8225;SDS011;4154;48.810;9.012;2023-09-19T21:07:01;3.75;;;2.65;;
8225;SDS011;4154;48.810;9.012;2023-09-19T21:18:15;3.58;;;2.70;;
8225;SDS011;4154;48.810;9.012;2023-09-19T21:20:45;4.10;;;2.70;;
8225;SDS011;4154;48.810;9.012;2023-09-19T21:23:11;3.08;;;2.15;;
8225;SDS011;4154;48.810;9.012;2023-09-19T21:25:41;2.40;;;1.95;;
8225;SDS011;4154;48.810;9.012;2023-09-19T21:28:18;1.88;;;1.70;;
8225;SDS011;4154;48.810;9.012;2023-09-19T21:30:44;2.42;;;1.63;;
8225;SDS011;4154;48.810;9.012;2023-09-19T21:33:10;3.20;;;1.70;;
8225;SDS011;4154;48.810;9.012;2023-09-19T21:35:46;2.58;;;1.80;;
8225;SDS011;4154;48.810;9.012;2023-09-19T21:38:27;1.92;;;1.65;;
8225;SDS011;4154;48.810;9.012;2023-09-19T21:40:53;2.17;;;1.60;;
8225;SDS011;4154;48.810;9.012;2023-09-19T21:43:19;3.35;;;1.80;;
8225;SDS011;4154;48.810;9.012;2023-09-19T21:45:48;1.88;;;1.70;;
8225;SDS011;4154;48.810;9.012;2023-09-19T21:48:14;2.22;;;2.00;;
8225;SDS011;4154;48.810;9.012;2023-09-19T21:50:40;2.30;;;1.90;;
8225;SDS011;4154;48.810;9.012;2023-09-19T21:53:17;3.33;;;2.08;;
8225;SDS011;4154;48.810;9.012;2023-09-19T21:55:44;2.50;;;2.08;;
8225;SDS011;4154;48.810;9.012;2023-09-19T21:58:10;2.10;;;1.98;;
8225;SDS011;4154;48.810;9.012;2023-09-19T22:00:37;3.17;;;2.20;;
8225;SDS011;4154;48.810;9.012;2023-09-19T22:03:05;2.53;;;2.30;;
8225;SDS011;4154;48.810;9.012;2023-09-19T22:05:34;2.33;;;2.13;;
8225;SDS011;4154;48.810;9.012;2023-09-19T22:08:12;1.80;;;1.70;;
8225;SDS011;4154;48.810;9.012;2023-09-19T22:13:18;4.57;;;1.80;;
8225;SDS011;4154;48.810;9.012;2023-09-19T22:15:56;2.03;;;1.73;;
8225;SDS011;4154;48.810;9.012;2023-09-19T22:18:31;1.90;;;1.73;;
8225;SDS011;4154;48.810;9.012;2023-09-19T22:21:50;1.70;;;1.60;;
8225;SDS011;4154;48.810;9.012;2023-09-19T22:24:23;2.00;;;1.60;;
8225;SDS011;4154;48.810;9.012;2023-09-19T22:26:50;2.13;;;1.73;;
8225;SDS011;4154;48.810;9.012;2023-09-19T22:29:17;1.80;;;1.70;;
8225;SDS011;4154;48.810;9.012;2023-09-19T22:31:43;2.00;;;1.80;;
8225;SDS011;4154;48.810;9.012;2023-09-19T22:34:15;1.70;;;1.60;;